Smit Humber — CFN6647 — position and weather

sailwx.info

Track history (hours):
 
Tides and Currents Weather Stations Pressure Air Temp Water Temp Dewpoint Dewpoint Depression Visibility Wind Speed Wind Dir Waves Ship Positions

Smit Humber

Last reported at 2018-May-28 04:49 UTC. Time now 2018-May-28 05:12 UTC.
Position N 54°18' W 130°22'.

Length 31 m; draft 5.1 m.

Type: Tug. MMSI: 316020345.

Date/timePositionNaut miles runAvg speedWind from/ knotsBaromVisibWave heightAir tempDewpointWater temp
2018-May-28 04:49N 54°18' W 130°22'2 5.8
2018-May-28 04:30N 54°16' W 130°22'4 7.4
2018-May-28 04:00N 54°12' W 130°22'3 5.2
2018-May-28 03:30N 54°15' W 130°21'3 4.7
2018-May-28 02:54N 54°18' W 130°21'0 0.0
2018-May-28 02:24N 54°18' W 130°21'0 0.0
2018-May-28 01:59N 54°18' W 130°21'0 0.0
2018-May-28 01:30N 54°18' W 130°21'0 0.0
2018-May-28 00:48N 54°18' W 130°21'0 0.0
2018-May-28 00:27N 54°18' W 130°21'0 0.0
2018-May-27 23:54N 54°18' W 130°21'0 0.0
2018-May-27 22:00N 54°18' W 130°21'0 0.0
2018-May-27 21:12N 54°18' W 130°21'0 0.0
2018-May-27 20:54N 54°18' W 130°21'0 0.0
2018-May-27 20:30N 54°18' W 130°21'0 0.0
2018-May-27 20:00N 54°18' W 130°21'0 0.0
2018-May-27 18:48N 54°18' W 130°21'0 0.0
2018-May-27 18:30N 54°18' W 130°21'0 0.0
2018-May-27 17:00N 54°18' W 130°21'0 0.0
2018-May-27 16:30N 54°18' W 130°21'0 0.0
2018-May-27 15:42N 54°18' W 130°21'0 0.0
2018-May-27 15:30N 54°18' W 130°21'0 0.0
2018-May-27 14:59N 54°18' W 130°21'0 0.0
2018-May-27 14:30N 54°18' W 130°21'0 0.0
2018-May-27 13:59N 54°18' W 130°21'0 0.0
2018-May-27 13:30N 54°18' W 130°21'1 1.1
2018-May-27 13:00N 54°17' W 130°22'3 5.7
2018-May-27 12:30N 54°14' W 130°21'3 6.0
2018-May-27 11:59N 54°17' W 130°22'0 0.1
2018-May-27 11:26N 54°17' W 130°22'0 0.8
2018-May-27 11:00N 54°18' W 130°21'0 0.2
2018-May-27 10:23N 54°18' W 130°21'0 0.0
2018-May-27 09:59N 54°18' W 130°21'0 0.0
2018-May-27 09:29N 54°18' W 130°21'0 0.0
2018-May-27 08:59N 54°18' W 130°21'0 0.0
2018-May-27 08:29N 54°18' W 130°21'0 0.0
2018-May-27 07:59N 54°18' W 130°21'0 0.0
2018-May-27 07:17N 54°18' W 130°21'0 0.0
2018-May-27 06:59N 54°18' W 130°21'0 0.0
2018-May-27 06:14N 54°18' W 130°21'0 0.0
2018-May-27 05:59N 54°18' W 130°21'0 0.0
2018-May-27 05:29N 54°18' W 130°21'0 0.0
2018-May-27 04:59N 54°18' W 130°21'0 0.0
2018-May-27 04:29N 54°18' W 130°21'0 0.0
2018-May-27 03:59N 54°18' W 130°21'0 0.0
2018-May-27 03:29N 54°18' W 130°21'0 0.0
2018-May-27 02:59N 54°18' W 130°21'0 0.0
2018-May-27 02:29N 54°18' W 130°21'0 0.0
2018-May-27 01:59N 54°18' W 130°21'0 0.0
2018-May-27 01:29N 54°18' W 130°21'0 0.0
2018-May-27 00:59N 54°18' W 130°21'0 0.0
2018-May-27 00:23N 54°18' W 130°21'0 0.0
2018-May-26 23:59N 54°18' W 130°21'0 0.0
2018-May-26 23:23N 54°18' W 130°21'0 0.0
2018-May-26 22:59N 54°18' W 130°21'0 0.0
2018-May-26 22:29N 54°18' W 130°21'0 0.0
2018-May-26 21:59N 54°18' W 130°21'0 0.0
2018-May-26 21:23N 54°18' W 130°21'0 0.0
2018-May-26 20:59N 54°18' W 130°21'0 0.0
2018-May-26 20:23N 54°18' W 130°21'0 0.0
2018-May-26 19:59N 54°18' W 130°21'0 0.0
2018-May-26 19:29N 54°18' W 130°21'0 0.0
2018-May-26 18:53N 54°18' W 130°21'0 0.0
2018-May-26 18:17N 54°18' W 130°21'0 0.0
2018-May-26 17:59N 54°18' W 130°21'0 0.0
2018-May-26 17:29N 54°18' W 130°21'0 0.0
2018-May-26 16:53N 54°18' W 130°21'0 0.0
2018-May-26 16:23N 54°18' W 130°21'0 0.0
2018-May-26 15:59N 54°18' W 130°21'0 0.0
2018-May-26 15:29N 54°18' W 130°21'0 0.0
2018-May-26 14:59N 54°18' W 130°21'0 0.0
2018-May-26 14:17N 54°18' W 130°21'0 0.0
2018-May-26 13:53N 54°18' W 130°21'0 0.0
2018-May-26 13:29N 54°18' W 130°21'0 0.0
2018-May-26 12:59N 54°18' W 130°21'0 0.0
2018-May-26 12:29N 54°18' W 130°21'0 0.0
2018-May-26 11:53N 54°18' W 130°21'0 0.0
2018-May-26 11:29N 54°18' W 130°21'0 0.0
2018-May-26 10:56N 54°18' W 130°21'0 0.0
2018-May-26 10:29N 54°18' W 130°21'0 0.0
2018-May-26 09:59N 54°18' W 130°21'0 0.0
2018-May-26 09:23N 54°18' W 130°21'0 0.0
2018-May-26 08:59N 54°18' W 130°21'0 0.0
2018-May-26 08:29N 54°18' W 130°21'0 0.0
2018-May-26 07:59N 54°18' W 130°21'0 0.0
2018-May-26 07:29N 54°18' W 130°21'0 0.0
2018-May-26 06:59N 54°18' W 130°21'0 0.0
2018-May-26 06:29N 54°18' W 130°21'0 0.0
2018-May-26 05:29N 54°18' W 130°21'0 0.0
2018-May-26 04:59N 54°18' W 130°21'0 0.0
2018-May-26 04:29N 54°18' W 130°21'0 0.0
2018-May-26 03:59N 54°18' W 130°21'0 0.0
2018-May-26 03:29N 54°18' W 130°21'0 0.0
2018-May-26 02:59N 54°18' W 130°21'0 0.0
2018-May-26 02:29N 54°18' W 130°21'0 0.0
2018-May-26 01:59N 54°18' W 130°21'0 0.0
2018-May-26 01:29N 54°18' W 130°21'0 0.0
2018-May-26 00:59N 54°18' W 130°21'0 0.0
2018-May-26 00:29N 54°18' W 130°21'0 0.0
2018-May-25 23:59N 54°18' W 130°21'0 0.0
2018-May-25 23:29N 54°18' W 130°21'0 0.0
2018-May-25 22:59N 54°18' W 130°21'0 0.6
2018-May-25 22:30N 54°17' W 130°22'0 0.4
2018-May-25 21:59N 54°17' W 130°22'0 0.7
2018-May-25 21:25N 54°18' W 130°21'0 0.0
2018-May-25 20:58N 54°18' W 130°21'0 0.0
2018-May-25 20:28N 54°18' W 130°21'0 0.0
2018-May-25 19:52N 54°18' W 130°21'0 0.0
2018-May-25 19:28N 54°18' W 130°21'0 0.0
2018-May-25 18:58N 54°18' W 130°21'0 0.0
2018-May-25 18:28N 54°18' W 130°21'0 0.0
2018-May-25 17:58N 54°18' W 130°21'0 0.0
2018-May-25 17:28N 54°18' W 130°21'0 0.0
2018-May-25 16:58N 54°18' W 130°21'0 0.0
2018-May-25 16:22N 54°18' W 130°21'0 0.0
2018-May-25 15:58N 54°18' W 130°21'0 0.0
2018-May-25 15:25N 54°18' W 130°21'0 0.0
2018-May-25 14:40N 54°18' W 130°21'0 0.0
2018-May-25 14:28N 54°18' W 130°21'0 0.0
2018-May-25 13:34N 54°18' W 130°21'0 0.0
2018-May-25 13:28N 54°18' W 130°21'0 0.0
2018-May-25 12:52N 54°18' W 130°21'0 0.0
2018-May-25 12:22N 54°18' W 130°21'0 0.0
2018-May-25 11:58N 54°18' W 130°21'0 0.0
2018-May-25 10:19N 54°18' W 130°21'0 0.0
2018-May-25 08:58N 54°18' W 130°21'0 0.0
2018-May-25 08:19N 54°18' W 130°21'0 0.0
2018-May-25 07:49N 54°18' W 130°21'0 0.0
2018-May-25 05:19N 54°18' W 130°21'0 0.0
2018-May-25 04:49N 54°18' W 130°21'0 0.0
2018-May-25 03:40N 54°18' W 130°21'0 0.0
2018-May-25 03:19N 54°18' W 130°21'0 0.0
2018-May-25 02:58N 54°18' W 130°21'0 0.0
2018-May-25 02:28N 54°18' W 130°21'0 0.0
2018-May-25 01:58N 54°18' W 130°21'0 0.0
2018-May-25 01:28N 54°18' W 130°21'0 0.0
2018-May-25 00:28N 54°18' W 130°21'0 0.0
2018-May-24 23:49N 54°18' W 130°21'0 0.0
2018-May-24 23:25N 54°18' W 130°21'0 0.0
2018-May-24 22:40N 54°18' W 130°21'0 0.0
2018-May-24 22:28N 54°18' W 130°21'0 0.0
2018-May-24 21:55N 54°18' W 130°21'0 0.0
2018-May-24 21:28N 54°18' W 130°21'0 0.0
2018-May-24 20:58N 54°18' W 130°21'0 0.0
2018-May-24 20:28N 54°18' W 130°21'0 0.0
2018-May-24 19:49N 54°18' W 130°21'0 0.0
2018-May-24 19:28N 54°18' W 130°21'0 0.0
2018-May-24 18:58N 54°18' W 130°21'0 0.0
2018-May-24 18:25N 54°18' W 130°21'0 0.0
2018-May-24 17:58N 54°18' W 130°21'0 0.0
2018-May-24 17:19N 54°18' W 130°21'0 0.0
2018-May-24 16:58N 54°18' W 130°21'0 0.0
2018-May-24 15:10N 54°18' W 130°21'0 0.0
2018-May-24 14:58N 54°18' W 130°21'0 0.0
2018-May-24 14:25N 54°18' W 130°21'0 0.0
2018-May-24 13:55N 54°18' W 130°21'0 0.0
2018-May-24 08:28N 54°18' W 130°21'0 0.0
2018-May-24 07:40N 54°18' W 130°21'0 0.0
2018-May-24 07:28N 54°18' W 130°21'0 0.0
2018-May-24 06:31N 54°18' W 130°21'0 0.0
2018-May-24 06:28N 54°18' W 130°21'0 0.0
2018-May-24 05:43N 54°18' W 130°21'0 0.0
2018-May-24 05:19N 54°18' W 130°21'0 0.0
2018-May-24 04:58N 54°18' W 130°21'1 1.1
2018-May-24 04:28N 54°17' W 130°22'1 1.3
2018-May-24 04:00N 54°18' W 130°22'1 1.9
2018-May-24 03:30N 54°17' W 130°22'4 8.5
2018-May-24 03:00N 54°13' W 130°21'3 5.5
2018-May-24 02:30N 54°15' W 130°21'2 4.6
2018-May-24 02:00N 54°18' W 130°21'0 0.0
2018-May-24 01:30N 54°18' W 130°21'0 0.0
2018-May-24 01:00N 54°18' W 130°21'0 0.0
2018-May-24 00:30N 54°18' W 130°21'0 0.0
2018-May-24 00:00N 54°18' W 130°21'0 0.0
2018-May-23 23:30N 54°18' W 130°21'0 0.3
2018-May-23 23:00N 54°18' W 130°21'4 8.3
2018-May-23 22:30N 54°13' W 130°20'0 0.1
2018-May-23 22:00N 54°14' W 130°20'4 7.3
2018-May-23 21:30N 54°17' W 130°22'1 1.0
2018-May-23 20:49N 54°18' W 130°21'0 0.0
2018-May-23 20:19N 54°18' W 130°21'0 0.0
2018-May-23 19:49N 54°18' W 130°21'0 0.0
2018-May-23 19:25N 54°18' W 130°21'0 0.0
2018-May-23 18:43N 54°18' W 130°21'0 0.0
2018-May-23 18:28N 54°18' W 130°21'0 0.0
2018-May-23 17:49N 54°18' W 130°21'0 0.0
2018-May-23 17:16N 54°18' W 130°21'0 0.0
2018-May-23 16:58N 54°18' W 130°21'0 0.0
2018-May-23 16:19N 54°18' W 130°21'0 0.0
2018-May-23 15:58N 54°18' W 130°21'0 0.0
2018-May-23 15:16N 54°18' W 130°21'0 0.0
2018-May-23 14:55N 54°18' W 130°21'0 0.0
2018-May-23 14:25N 54°18' W 130°21'0 0.0
2018-May-23 13:49N 54°18' W 130°21'0 0.9
2018-May-23 13:28N 54°17' W 130°22'0 0.6
2018-May-23 12:58N 54°18' W 130°22'1 1.3
2018-May-23 12:30N 54°17' W 130°22'1 0.9
2018-May-23 11:50N 54°18' W 130°21'0 0.0
2018-May-23 11:29N 54°18' W 130°21'0 0.0
2018-May-23 10:59N 54°18' W 130°21'0 0.0
2018-May-23 10:29N 54°18' W 130°21'0 0.0
2018-May-23 09:56N 54°18' W 130°21'0 0.0
2018-May-23 09:29N 54°18' W 130°21'0 0.0
2018-May-23 08:59N 54°18' W 130°21'0 0.0
2018-May-23 08:29N 54°18' W 130°21'0 0.0
2018-May-23 07:59N 54°18' W 130°21'0 0.0
2018-May-23 07:29N 54°18' W 130°21'0 0.0
2018-May-23 06:59N 54°18' W 130°21'0 0.0
2018-May-23 06:29N 54°18' W 130°21'0 0.0
2018-May-23 05:59N 54°18' W 130°21'0 0.0
2018-May-23 05:29N 54°18' W 130°21'0 0.0
2018-May-23 04:59N 54°18' W 130°21'0 0.0
2018-May-23 04:29N 54°18' W 130°21'0 0.0
2018-May-23 03:53N 54°18' W 130°21'0 0.0
2018-May-23 03:29N 54°18' W 130°21'0 0.0
2018-May-23 02:59N 54°18' W 130°21'0 0.0
2018-May-23 02:29N 54°18' W 130°21'0 0.0
2018-May-23 01:59N 54°18' W 130°21'0 0.0
2018-May-23 01:29N 54°18' W 130°21'0 0.0
2018-May-23 00:59N 54°18' W 130°21'0 0.0
2018-May-23 00:29N 54°18' W 130°21'0 0.0
2018-May-22 23:53N 54°18' W 130°21'0 0.0
2018-May-22 23:29N 54°18' W 130°21'0 0.0
2018-May-22 22:59N 54°18' W 130°21'0 0.0
2018-May-22 22:29N 54°18' W 130°21'4 7.6
2018-May-22 22:00N 54°14' W 130°21'0 0.9
2018-May-22 21:29N 54°14' W 130°20'0 0.1
2018-May-22 20:59N 54°14' W 130°20'1 1.1
2018-May-22 20:31N 54°13' W 130°21'1 1.2
2018-May-22 20:00N 54°14' W 130°20'0 0.0
2018-May-22 19:30N 54°14' W 130°20'0 0.0
2018-May-22 19:00N 54°14' W 130°20'3 6.2
2018-May-22 18:30N 54°16' W 130°22'1 2.0
2018-May-22 17:58N 54°18' W 130°21'0 0.0
2018-May-22 17:19N 54°18' W 130°21'0 0.0
2018-May-22 16:58N 54°18' W 130°21'0 0.0
2018-May-22 16:25N 54°18' W 130°21'0 0.0
2018-May-22 15:52N 54°18' W 130°21'0 0.0
2018-May-22 15:28N 54°18' W 130°21'0 0.0
2018-May-22 14:58N 54°18' W 130°21'0 0.0
2018-May-22 14:28N 54°18' W 130°21'0 0.0
2018-May-22 13:58N 54°18' W 130°21'0 0.0
2018-May-22 13:28N 54°18' W 130°21'0 0.0
2018-May-22 12:58N 54°18' W 130°21'0 0.0
2018-May-22 12:28N 54°18' W 130°21'0 0.0
2018-May-22 11:58N 54°18' W 130°21'0 0.0
2018-May-22 11:28N 54°18' W 130°21'0 0.0
2018-May-22 10:52N 54°18' W 130°21'0 0.0
2018-May-22 10:28N 54°18' W 130°21'0 0.0
2018-May-22 09:58N 54°18' W 130°21'0 0.0
2018-May-22 09:28N 54°18' W 130°21'0 0.0
2018-May-22 08:58N 54°18' W 130°21'0 0.0
2018-May-22 08:28N 54°18' W 130°21'0 0.0
2018-May-22 07:58N 54°18' W 130°21'0 0.1
2018-May-22 07:30N 54°18' W 130°21'0 0.8
2018-May-22 06:58N 54°17' W 130°22'0 0.4
2018-May-22 06:28N 54°17' W 130°22'0 0.7
2018-May-22 05:56N 54°18' W 130°22'2 5.5
2018-May-22 05:30N 54°15' W 130°21'3 6.7
2018-May-22 05:00N 54°12' W 130°22'1 1.0
2018-May-22 04:30N 54°12' W 130°21'5 9.2
2018-May-22 04:00N 54°16' W 130°22'1 2.0
2018-May-22 03:28N 54°18' W 130°21'0 0.0
2018-May-22 02:58N 54°18' W 130°21'0 0.0
2018-May-22 02:28N 54°18' W 130°21'0 0.0
2018-May-22 01:58N 54°18' W 130°21'0 0.0
2018-May-22 01:22N 54°18' W 130°21'0 0.0
2018-May-22 00:49N 54°18' W 130°21'0 0.0
2018-May-22 00:28N 54°18' W 130°21'0 0.0
2018-May-21 23:58N 54°18' W 130°21'0 0.0
2018-May-21 23:28N 54°18' W 130°21'0 0.0
2018-May-21 22:52N 54°18' W 130°21'0 0.0
2018-May-21 22:28N 54°18' W 130°21'0 0.0
2018-May-21 21:49N 54°18' W 130°21'0 0.0
2018-May-21 21:28N 54°18' W 130°21'0 0.1
2018-May-21 20:57N 54°18' W 130°21'4 8.8
2018-May-21 20:29N 54°13' W 130°20'0 0.0
2018-May-21 19:59N 54°14' W 130°20'0 0.5
2018-May-21 19:29N 54°14' W 130°21'0 0.5
2018-May-21 19:00N 54°14' W 130°20'0 0.0
2018-May-21 18:30N 54°14' W 130°20'4 7.4
2018-May-21 18:00N 54°10' W 130°22'3 7.0
2018-May-21 17:30N 54°13' W 130°21'4 2.0
2018-May-21 15:25N 54°18' W 130°21'0 0.1
2018-May-21 14:43N 54°18' W 130°21'1 2.8
2018-May-21 14:30N 54°17' W 130°22'3 5.8
2018-May-21 13:58N 54°14' W 130°20'0 0.0
2018-May-21 13:28N 54°14' W 130°20'0 0.7
2018-May-21 12:58N 54°14' W 130°21'3 7.0
2018-May-21 12:30N 54°17' W 130°22'0 0.5
2018-May-21 11:46N 54°18' W 130°21'0 0.0
2018-May-21 11:28N 54°18' W 130°21'0 0.0
2018-May-21 10:58N 54°18' W 130°21'0 0.0
2018-May-21 10:25N 54°18' W 130°21'0 0.0
2018-May-21 09:58N 54°18' W 130°21'0 0.0
2018-May-21 09:28N 54°18' W 130°21'0 0.0
2018-May-21 08:58N 54°18' W 130°21'0 0.0
2018-May-21 08:28N 54°18' W 130°21'0 0.1
2018-May-21 07:51N 54°18' W 130°21'3 8.0
2018-May-21 07:30N 54°15' W 130°21'1 1.7
2018-May-21 06:58N 54°14' W 130°20'2 4.2
2018-May-21 06:30N 54°16' W 130°22'2 3.4
2018-May-21 05:59N 54°18' W 130°21'0 0.0
2018-May-21 05:29N 54°18' W 130°21'0 0.0
2018-May-21 04:29N 54°18' W 130°21'0 0.0
2018-May-21 03:59N 54°18' W 130°21'0 0.0
2018-May-21 03:26N 54°18' W 130°21'0 0.0
2018-May-21 02:17N 54°18' W 130°21'0 0.0
2018-May-21 01:56N 54°18' W 130°21'0 0.0
2018-May-21 01:11N 54°18' W 130°21'0 0.0
2018-May-21 00:56N 54°18' W 130°21'3 6.4
2018-May-21 00:30N 54°15' W 130°21'510.7
2018-May-21 00:00N 54°09' W 130°23'0 0.4
2018-May-20 23:31N 54°10' W 130°23'5 9.8
2018-May-20 23:00N 54°14' W 130°21'3 5.9
2018-May-20 22:29N 54°18' W 130°21'0 0.0
2018-May-20 21:56N 54°18' W 130°21'0 0.0
2018-May-20 21:05N 54°18' W 130°21'0 0.0
2018-May-20 20:59N 54°18' W 130°21'0 0.0
2018-May-20 20:29N 54°18' W 130°21'0 0.0
2018-May-20 19:50N 54°18' W 130°21'0 0.0
2018-May-20 19:20N 54°18' W 130°21'0 0.0
2018-May-20 18:56N 54°18' W 130°21'0 0.0
2018-May-20 18:29N 54°18' W 130°21'0 0.0
2018-May-20 17:53N 54°18' W 130°21'0 0.0
2018-May-20 17:23N 54°18' W 130°21'0 0.0
2018-May-20 16:59N 54°18' W 130°21'0 0.0
2018-May-20 16:29N 54°18' W 130°21'0 0.0
2018-May-20 15:59N 54°18' W 130°21'0 0.0
2018-May-20 15:29N 54°18' W 130°21'0 0.0
2018-May-20 14:59N 54°18' W 130°21'0 0.0
2018-May-20 14:29N 54°18' W 130°21'0 0.0
2018-May-20 13:59N 54°18' W 130°21'0 0.0
2018-May-20 13:29N 54°18' W 130°21'0 0.0
2018-May-20 12:59N 54°18' W 130°21'0 0.0
2018-May-20 12:29N 54°18' W 130°21'0 0.0
2018-May-20 11:53N 54°18' W 130°21'0 0.0
2018-May-20 11:29N 54°18' W 130°21'0 0.0
2018-May-20 10:56N 54°18' W 130°21'0 0.0
2018-May-20 10:08N 54°18' W 130°21'0 0.0
2018-May-20 09:47N 54°18' W 130°21'0 0.0
2018-May-20 09:29N 54°18' W 130°21'0 0.0
2018-May-20 08:08N 54°18' W 130°21'0 0.0
2018-May-20 07:56N 54°18' W 130°21'0 0.0
2018-May-20 07:26N 54°18' W 130°21'0 0.9
2018-May-20 06:59N 54°17' W 130°22'0 0.0
2018-May-20 06:29N 54°17' W 130°22'0 0.4
2018-May-20 05:56N 54°17' W 130°22'1 1.5
2018-May-20 05:22N 54°18' W 130°22'0 1.0
2018-May-20 05:00N 54°18' W 130°22'4 7.7
2018-May-20 04:30N 54°14' W 130°21'2 3.7
2018-May-20 04:00N 54°12' W 130°22'1 1.7
2018-May-20 03:30N 54°13' W 130°22'4 7.9
2018-May-20 03:00N 54°17' W 130°22'1 1.3
2018-May-20 02:29N 54°18' W 130°21'0 0.0
2018-May-20 01:50N 54°18' W 130°21'0 0.0
2018-May-20 01:23N 54°18' W 130°21'0 0.0
2018-May-20 00:59N 54°18' W 130°21'0 0.0
2018-May-20 00:26N 54°18' W 130°21'0 0.0
2018-May-19 23:53N 54°18' W 130°21'0 0.0
2018-May-19 23:29N 54°18' W 130°21'0 0.0
2018-May-19 22:59N 54°18' W 130°21'0 0.0
2018-May-19 22:29N 54°18' W 130°21'0 0.0
2018-May-19 21:44N 54°18' W 130°21'0 0.0
2018-May-19 21:29N 54°18' W 130°21'0 0.0
2018-May-19 20:38N 54°18' W 130°21'0 0.0
2018-May-19 19:38N 54°18' W 130°21'0 0.0
2018-May-19 19:29N 54°18' W 130°21'0 0.0
2018-May-19 18:50N 54°18' W 130°21'0 0.0
2018-May-19 18:20N 54°18' W 130°21'0 0.0
2018-May-19 17:50N 54°18' W 130°21'0 0.0
2018-May-19 17:29N 54°18' W 130°21'0 0.0
2018-May-19 16:59N 54°18' W 130°21'0 0.0
2018-May-19 16:29N 54°18' W 130°21'0 0.0
2018-May-19 15:59N 54°18' W 130°21'0 0.0
2018-May-19 15:26N 54°18' W 130°21'1 2.9
2018-May-19 15:00N 54°16' W 130°22'3 5.6
2018-May-19 14:29N 54°14' W 130°20'0 0.0
2018-May-19 13:59N 54°14' W 130°20'0 0.1
2018-May-19 13:29N 54°14' W 130°20'1 1.1
2018-May-19 13:00N 54°13' W 130°21'3 5.1
2018-May-19 12:30N 54°16' W 130°21'2 1.0
2018-May-19 10:34N 54°18' W 130°21'0 0.0
2018-May-19 10:28N 54°18' W 130°21'0 0.0
2018-May-19 09:58N 54°18' W 130°21'0 0.0
2018-May-19 09:28N 54°18' W 130°21'0 0.0
2018-May-19 08:58N 54°18' W 130°21'0 0.0
2018-May-19 08:04N 54°18' W 130°21'0 0.0
2018-May-19 07:58N 54°18' W 130°21'0 0.0
2018-May-19 06:37N 54°18' W 130°21'0 0.0
2018-May-19 06:19N 54°18' W 130°21'0 0.0
2018-May-19 05:52N 54°18' W 130°21'0 0.0
2018-May-19 05:28N 54°18' W 130°21'0 0.0
2018-May-19 04:58N 54°18' W 130°21'0 0.0
2018-May-19 04:28N 54°18' W 130°21'0 0.0
2018-May-19 03:58N 54°18' W 130°21'0 0.0
2018-May-19 03:28N 54°18' W 130°21'0 0.0
2018-May-19 02:58N 54°18' W 130°21'0 0.0
2018-May-19 02:25N 54°18' W 130°21'0 0.0
2018-May-19 01:58N 54°18' W 130°21'0 0.0
2018-May-19 01:25N 54°18' W 130°21'0 0.0
2018-May-19 00:49N 54°18' W 130°21'0 0.0
2018-May-19 00:28N 54°18' W 130°21'0 0.0
2018-May-18 23:58N 54°18' W 130°21'0 0.0
2018-May-18 23:28N 54°18' W 130°21'0 0.0
2018-May-18 20:52N 54°18' W 130°21'0 0.0
2018-May-18 20:25N 54°18' W 130°21'0 0.0
2018-May-18 19:55N 54°18' W 130°21'0 0.0
2018-May-18 19:25N 54°18' W 130°21'0 0.0
2018-May-18 18:49N 54°18' W 130°21'0 0.0
2018-May-18 18:25N 54°18' W 130°21'0 0.0
2018-May-18 17:58N 54°18' W 130°21'0 0.0
2018-May-18 17:25N 54°18' W 130°21'0 0.0
2018-May-18 16:55N 54°18' W 130°21'0 0.0
2018-May-18 16:19N 54°18' W 130°21'0 0.0
2018-May-18 15:55N 54°18' W 130°21'0 0.0
2018-May-18 15:25N 54°18' W 130°21'0 1.0
2018-May-18 14:59N 54°17' W 130°22'0 0.1
2018-May-18 14:29N 54°17' W 130°22'1 1.0
2018-May-18 13:42N 54°18' W 130°22'1 5.2
2018-May-18 13:30N 54°17' W 130°22'4 8.8
2018-May-18 13:00N 54°13' W 130°21'0 0.8
2018-May-18 12:28N 54°12' W 130°22'1 1.2
2018-May-18 12:00N 54°13' W 130°21'3 6.6
2018-May-18 11:30N 54°16' W 130°22'1 2.5
2018-May-18 10:58N 54°18' W 130°21'0 0.0
2018-May-18 10:28N 54°18' W 130°21'0 0.0
2018-May-18 09:58N 54°18' W 130°21'0 0.0
2018-May-18 09:28N 54°18' W 130°21'0 0.0
2018-May-18 08:58N 54°18' W 130°21'0 0.0
2018-May-18 08:28N 54°18' W 130°21'0 0.0
2018-May-18 07:58N 54°18' W 130°21'0 0.0
2018-May-18 07:25N 54°18' W 130°21'0 0.0
2018-May-18 06:46N 54°18' W 130°21'0 0.0
2018-May-18 06:25N 54°18' W 130°21'0 0.0
2018-May-18 05:55N 54°18' W 130°21'0 0.0
2018-May-18 05:25N 54°18' W 130°21'0 0.0
2018-May-18 04:55N 54°18' W 130°21'  
Track history (hours):
 
Tides and Currents Weather Stations Pressure Air Temp Water Temp Dewpoint Dewpoint Depression Visibility Wind Speed Wind Dir Waves Ship Positions

Smit Humber

Last reported at 2018-May-28 04:49 UTC. Time now 2018-May-28 05:12 UTC.
Position N 54°18' W 130°22'.

Length 31 m; draft 5.1 m.

Type: Tug. MMSI: 316020345.

Date/timePositionNaut miles runAvg speedWind from/ knotsBaromVisibWave heightAir tempDewpointWater temp
2018-May-28 04:49N 54°18' W 130°22'2 5.8
2018-May-28 04:30N 54°16' W 130°22'4 7.4
2018-May-28 04:00N 54°12' W 130°22'3 5.2
2018-May-28 03:30N 54°15' W 130°21'3 4.7
2018-May-28 02:54N 54°18' W 130°21'0 0.0
2018-May-28 02:24N 54°18' W 130°21'0 0.0
2018-May-28 01:59N 54°18' W 130°21'0 0.0
2018-May-28 01:30N 54°18' W 130°21'0 0.0
2018-May-28 00:48N 54°18' W 130°21'0 0.0
2018-May-28 00:27N 54°18' W 130°21'0 0.0
2018-May-27 23:54N 54°18' W 130°21'0 0.0
2018-May-27 22:00N 54°18' W 130°21'0 0.0
2018-May-27 21:12N 54°18' W 130°21'0 0.0
2018-May-27 20:54N 54°18' W 130°21'0 0.0
2018-May-27 20:30N 54°18' W 130°21'0 0.0
2018-May-27 20:00N 54°18' W 130°21'0 0.0
2018-May-27 18:48N 54°18' W 130°21'0 0.0
2018-May-27 18:30N 54°18' W 130°21'0 0.0
2018-May-27 17:00N 54°18' W 130°21'0 0.0
2018-May-27 16:30N 54°18' W 130°21'0 0.0
2018-May-27 15:42N 54°18' W 130°21'0 0.0
2018-May-27 15:30N 54°18' W 130°21'0 0.0
2018-May-27 14:59N 54°18' W 130°21'0 0.0
2018-May-27 14:30N 54°18' W 130°21'0 0.0
2018-May-27 13:59N 54°18' W 130°21'0 0.0
2018-May-27 13:30N 54°18' W 130°21'1 1.1
2018-May-27 13:00N 54°17' W 130°22'3 5.7
2018-May-27 12:30N 54°14' W 130°21'3 6.0
2018-May-27 11:59N 54°17' W 130°22'0 0.1
2018-May-27 11:26N 54°17' W 130°22'0 0.8
2018-May-27 11:00N 54°18' W 130°21'0 0.2
2018-May-27 10:23N 54°18' W 130°21'0 0.0
2018-May-27 09:59N 54°18' W 130°21'0 0.0
2018-May-27 09:29N 54°18' W 130°21'0 0.0
2018-May-27 08:59N 54°18' W 130°21'0 0.0
2018-May-27 08:29N 54°18' W 130°21'0 0.0
2018-May-27 07:59N 54°18' W 130°21'0 0.0
2018-May-27 07:17N 54°18' W 130°21'0 0.0
2018-May-27 06:59N 54°18' W 130°21'0 0.0
2018-May-27 06:14N 54°18' W 130°21'0 0.0
2018-May-27 05:59N 54°18' W 130°21'0 0.0
2018-May-27 05:29N 54°18' W 130°21'0 0.0
2018-May-27 04:59N 54°18' W 130°21'0 0.0
2018-May-27 04:29N 54°18' W 130°21'0 0.0
2018-May-27 03:59N 54°18' W 130°21'0 0.0
2018-May-27 03:29N 54°18' W 130°21'0 0.0
2018-May-27 02:59N 54°18' W 130°21'0 0.0
2018-May-27 02:29N 54°18' W 130°21'0 0.0
2018-May-27 01:59N 54°18' W 130°21'0 0.0
2018-May-27 01:29N 54°18' W 130°21'0 0.0
2018-May-27 00:59N 54°18' W 130°21'0 0.0
2018-May-27 00:23N 54°18' W 130°21'0 0.0
2018-May-26 23:59N 54°18' W 130°21'0 0.0
2018-May-26 23:23N 54°18' W 130°21'0 0.0
2018-May-26 22:59N 54°18' W 130°21'0 0.0
2018-May-26 22:29N 54°18' W 130°21'0 0.0
2018-May-26 21:59N 54°18' W 130°21'0 0.0
2018-May-26 21:23N 54°18' W 130°21'0 0.0
2018-May-26 20:59N 54°18' W 130°21'0 0.0
2018-May-26 20:23N 54°18' W 130°21'0 0.0
2018-May-26 19:59N 54°18' W 130°21'0 0.0
2018-May-26 19:29N 54°18' W 130°21'0 0.0
2018-May-26 18:53N 54°18' W 130°21'0 0.0
2018-May-26 18:17N 54°18' W 130°21'0 0.0
2018-May-26 17:59N 54°18' W 130°21'0 0.0
2018-May-26 17:29N 54°18' W 130°21'0 0.0
2018-May-26 16:53N 54°18' W 130°21'0 0.0
2018-May-26 16:23N 54°18' W 130°21'0 0.0
2018-May-26 15:59N 54°18' W 130°21'0 0.0
2018-May-26 15:29N 54°18' W 130°21'0 0.0
2018-May-26 14:59N 54°18' W 130°21'0 0.0
2018-May-26 14:17N 54°18' W 130°21'0 0.0
2018-May-26 13:53N 54°18' W 130°21'0 0.0
2018-May-26 13:29N 54°18' W 130°21'0 0.0
2018-May-26 12:59N 54°18' W 130°21'0 0.0
2018-May-26 12:29N 54°18' W 130°21'0 0.0
2018-May-26 11:53N 54°18' W 130°21'0 0.0
2018-May-26 11:29N 54°18' W 130°21'0 0.0
2018-May-26 10:56N 54°18' W 130°21'0 0.0
2018-May-26 10:29N 54°18' W 130°21'0 0.0
2018-May-26 09:59N 54°18' W 130°21'0 0.0
2018-May-26 09:23N 54°18' W 130°21'0 0.0
2018-May-26 08:59N 54°18' W 130°21'0 0.0
2018-May-26 08:29N 54°18' W 130°21'0 0.0
2018-May-26 07:59N 54°18' W 130°21'0 0.0
2018-May-26 07:29N 54°18' W 130°21'0 0.0
2018-May-26 06:59N 54°18' W 130°21'0 0.0
2018-May-26 06:29N 54°18' W 130°21'0 0.0
2018-May-26 05:29N 54°18' W 130°21'0 0.0
2018-May-26 04:59N 54°18' W 130°21'0 0.0
2018-May-26 04:29N 54°18' W 130°21'0 0.0
2018-May-26 03:59N 54°18' W 130°21'0 0.0
2018-May-26 03:29N 54°18' W 130°21'0 0.0
2018-May-26 02:59N 54°18' W 130°21'0 0.0
2018-May-26 02:29N 54°18' W 130°21'0 0.0
2018-May-26 01:59N 54°18' W 130°21'0 0.0
2018-May-26 01:29N 54°18' W 130°21'0 0.0
2018-May-26 00:59N 54°18' W 130°21'0 0.0
2018-May-26 00:29N 54°18' W 130°21'0 0.0
2018-May-25 23:59N 54°18' W 130°21'0 0.0
2018-May-25 23:29N 54°18' W 130°21'0 0.0
2018-May-25 22:59N 54°18' W 130°21'0 0.6
2018-May-25 22:30N 54°17' W 130°22'0 0.4
2018-May-25 21:59N 54°17' W 130°22'0 0.7
2018-May-25 21:25N 54°18' W 130°21'0 0.0
2018-May-25 20:58N 54°18' W 130°21'0 0.0
2018-May-25 20:28N 54°18' W 130°21'0 0.0
2018-May-25 19:52N 54°18' W 130°21'0 0.0
2018-May-25 19:28N 54°18' W 130°21'0 0.0
2018-May-25 18:58N 54°18' W 130°21'0 0.0
2018-May-25 18:28N 54°18' W 130°21'0 0.0
2018-May-25 17:58N 54°18' W 130°21'0 0.0
2018-May-25 17:28N 54°18' W 130°21'0 0.0
2018-May-25 16:58N 54°18' W 130°21'0 0.0
2018-May-25 16:22N 54°18' W 130°21'0 0.0
2018-May-25 15:58N 54°18' W 130°21'0 0.0
2018-May-25 15:25N 54°18' W 130°21'0 0.0
2018-May-25 14:40N 54°18' W 130°21'0 0.0
2018-May-25 14:28N 54°18' W 130°21'0 0.0
2018-May-25 13:34N 54°18' W 130°21'0 0.0
2018-May-25 13:28N 54°18' W 130°21'0 0.0
2018-May-25 12:52N 54°18' W 130°21'0 0.0
2018-May-25 12:22N 54°18' W 130°21'0 0.0
2018-May-25 11:58N 54°18' W 130°21'0 0.0
2018-May-25 10:19N 54°18' W 130°21'0 0.0
2018-May-25 08:58N 54°18' W 130°21'0 0.0
2018-May-25 08:19N 54°18' W 130°21'0 0.0
2018-May-25 07:49N 54°18' W 130°21'0 0.0
2018-May-25 05:19N 54°18' W 130°21'0 0.0
2018-May-25 04:49N 54°18' W 130°21'0 0.0
2018-May-25 03:40N 54°18' W 130°21'0 0.0
2018-May-25 03:19N 54°18' W 130°21'0 0.0
2018-May-25 02:58N 54°18' W 130°21'0 0.0
2018-May-25 02:28N 54°18' W 130°21'0 0.0
2018-May-25 01:58N 54°18' W 130°21'0 0.0
2018-May-25 01:28N 54°18' W 130°21'0 0.0
2018-May-25 00:28N 54°18' W 130°21'0 0.0
2018-May-24 23:49N 54°18' W 130°21'0 0.0
2018-May-24 23:25N 54°18' W 130°21'0 0.0
2018-May-24 22:40N 54°18' W 130°21'0 0.0
2018-May-24 22:28N 54°18' W 130°21'0 0.0
2018-May-24 21:55N 54°18' W 130°21'0 0.0
2018-May-24 21:28N 54°18' W 130°21'0 0.0
2018-May-24 20:58N 54°18' W 130°21'0 0.0
2018-May-24 20:28N 54°18' W 130°21'0 0.0
2018-May-24 19:49N 54°18' W 130°21'0 0.0
2018-May-24 19:28N 54°18' W 130°21'0 0.0
2018-May-24 18:58N 54°18' W 130°21'0 0.0
2018-May-24 18:25N 54°18' W 130°21'0 0.0
2018-May-24 17:58N 54°18' W 130°21'0 0.0
2018-May-24 17:19N 54°18' W 130°21'0 0.0
2018-May-24 16:58N 54°18' W 130°21'0 0.0
2018-May-24 15:10N 54°18' W 130°21'0 0.0
2018-May-24 14:58N 54°18' W 130°21'0 0.0
2018-May-24 14:25N 54°18' W 130°21'0 0.0
2018-May-24 13:55N 54°18' W 130°21'0 0.0
2018-May-24 08:28N 54°18' W 130°21'0 0.0
2018-May-24 07:40N 54°18' W 130°21'0 0.0
2018-May-24 07:28N 54°18' W 130°21'0 0.0
2018-May-24 06:31N 54°18' W 130°21'0 0.0
2018-May-24 06:28N 54°18' W 130°21'0 0.0
2018-May-24 05:43N 54°18' W 130°21'0 0.0
2018-May-24 05:19N 54°18' W 130°21'0 0.0
2018-May-24 04:58N 54°18' W 130°21'1 1.1
2018-May-24 04:28N 54°17' W 130°22'1 1.3
2018-May-24 04:00N 54°18' W 130°22'1 1.9
2018-May-24 03:30N 54°17' W 130°22'4 8.5
2018-May-24 03:00N 54°13' W 130°21'3 5.5
2018-May-24 02:30N 54°15' W 130°21'2 4.6
2018-May-24 02:00N 54°18' W 130°21'0 0.0
2018-May-24 01:30N 54°18' W 130°21'0 0.0
2018-May-24 01:00N 54°18' W 130°21'0 0.0
2018-May-24 00:30N 54°18' W 130°21'0 0.0
2018-May-24 00:00N 54°18' W 130°21'0 0.0
2018-May-23 23:30N 54°18' W 130°21'0 0.3
2018-May-23 23:00N 54°18' W 130°21'4 8.3
2018-May-23 22:30N 54°13' W 130°20'0 0.1
2018-May-23 22:00N 54°14' W 130°20'4 7.3
2018-May-23 21:30N 54°17' W 130°22'1 1.0
2018-May-23 20:49N 54°18' W 130°21'0 0.0
2018-May-23 20:19N 54°18' W 130°21'0 0.0
2018-May-23 19:49N 54°18' W 130°21'0 0.0
2018-May-23 19:25N 54°18' W 130°21'0 0.0
2018-May-23 18:43N 54°18' W 130°21'0 0.0
2018-May-23 18:28N 54°18' W 130°21'0 0.0
2018-May-23 17:49N 54°18' W 130°21'0 0.0
2018-May-23 17:16N 54°18' W 130°21'0 0.0
2018-May-23 16:58N 54°18' W 130°21'0 0.0
2018-May-23 16:19N 54°18' W 130°21'0 0.0
2018-May-23 15:58N 54°18' W 130°21'0 0.0
2018-May-23 15:16N 54°18' W 130°21'0 0.0
2018-May-23 14:55N 54°18' W 130°21'0 0.0
2018-May-23 14:25N 54°18' W 130°21'0 0.0
2018-May-23 13:49N 54°18' W 130°21'0 0.9
2018-May-23 13:28N 54°17' W 130°22'0 0.6
2018-May-23 12:58N 54°18' W 130°22'1 1.3
2018-May-23 12:30N 54°17' W 130°22'1 0.9
2018-May-23 11:50N 54°18' W 130°21'0 0.0
2018-May-23 11:29N 54°18' W 130°21'0 0.0
2018-May-23 10:59N 54°18' W 130°21'0 0.0
2018-May-23 10:29N 54°18' W 130°21'0 0.0
2018-May-23 09:56N 54°18' W 130°21'0 0.0
2018-May-23 09:29N 54°18' W 130°21'0 0.0
2018-May-23 08:59N 54°18' W 130°21'0 0.0
2018-May-23 08:29N 54°18' W 130°21'0 0.0
2018-May-23 07:59N 54°18' W 130°21'0 0.0
2018-May-23 07:29N 54°18' W 130°21'0 0.0
2018-May-23 06:59N 54°18' W 130°21'0 0.0
2018-May-23 06:29N 54°18' W 130°21'0 0.0
2018-May-23 05:59N 54°18' W 130°21'0 0.0
2018-May-23 05:29N 54°18' W 130°21'0 0.0
2018-May-23 04:59N 54°18' W 130°21'0 0.0
2018-May-23 04:29N 54°18' W 130°21'0 0.0
2018-May-23 03:53N 54°18' W 130°21'0 0.0
2018-May-23 03:29N 54°18' W 130°21'0 0.0
2018-May-23 02:59N 54°18' W 130°21'0 0.0
2018-May-23 02:29N 54°18' W 130°21'0 0.0
2018-May-23 01:59N 54°18' W 130°21'0 0.0
2018-May-23 01:29N 54°18' W 130°21'0 0.0
2018-May-23 00:59N 54°18' W 130°21'0 0.0
2018-May-23 00:29N 54°18' W 130°21'0 0.0
2018-May-22 23:53N 54°18' W 130°21'0 0.0
2018-May-22 23:29N 54°18' W 130°21'0 0.0
2018-May-22 22:59N 54°18' W 130°21'0 0.0
2018-May-22 22:29N 54°18' W 130°21'4 7.6
2018-May-22 22:00N 54°14' W 130°21'0 0.9
2018-May-22 21:29N 54°14' W 130°20'0 0.1
2018-May-22 20:59N 54°14' W 130°20'1 1.1
2018-May-22 20:31N 54°13' W 130°21'1 1.2
2018-May-22 20:00N 54°14' W 130°20'0 0.0
2018-May-22 19:30N 54°14' W 130°20'0 0.0
2018-May-22 19:00N 54°14' W 130°20'3 6.2
2018-May-22 18:30N 54°16' W 130°22'1 2.0
2018-May-22 17:58N 54°18' W 130°21'0 0.0
2018-May-22 17:19N 54°18' W 130°21'0 0.0
2018-May-22 16:58N 54°18' W 130°21'0 0.0
2018-May-22 16:25N 54°18' W 130°21'0 0.0
2018-May-22 15:52N 54°18' W 130°21'0 0.0
2018-May-22 15:28N 54°18' W 130°21'0 0.0
2018-May-22 14:58N 54°18' W 130°21'0 0.0
2018-May-22 14:28N 54°18' W 130°21'0 0.0
2018-May-22 13:58N 54°18' W 130°21'0 0.0
2018-May-22 13:28N 54°18' W 130°21'0 0.0
2018-May-22 12:58N 54°18' W 130°21'0 0.0
2018-May-22 12:28N 54°18' W 130°21'0 0.0
2018-May-22 11:58N 54°18' W 130°21'0 0.0
2018-May-22 11:28N 54°18' W 130°21'0 0.0
2018-May-22 10:52N 54°18' W 130°21'0 0.0
2018-May-22 10:28N 54°18' W 130°21'0 0.0
2018-May-22 09:58N 54°18' W 130°21'0 0.0
2018-May-22 09:28N 54°18' W 130°21'0 0.0
2018-May-22 08:58N 54°18' W 130°21'0 0.0
2018-May-22 08:28N 54°18' W 130°21'0 0.0
2018-May-22 07:58N 54°18' W 130°21'0 0.1
2018-May-22 07:30N 54°18' W 130°21'0 0.8
2018-May-22 06:58N 54°17' W 130°22'0 0.4
2018-May-22 06:28N 54°17' W 130°22'0 0.7
2018-May-22 05:56N 54°18' W 130°22'2 5.5
2018-May-22 05:30N 54°15' W 130°21'3 6.7
2018-May-22 05:00N 54°12' W 130°22'1 1.0
2018-May-22 04:30N 54°12' W 130°21'5 9.2
2018-May-22 04:00N 54°16' W 130°22'1 2.0
2018-May-22 03:28N 54°18' W 130°21'0 0.0
2018-May-22 02:58N 54°18' W 130°21'0 0.0
2018-May-22 02:28N 54°18' W 130°21'0 0.0
2018-May-22 01:58N 54°18' W 130°21'0 0.0
2018-May-22 01:22N 54°18' W 130°21'0 0.0
2018-May-22 00:49N 54°18' W 130°21'0 0.0
2018-May-22 00:28N 54°18' W 130°21'0 0.0
2018-May-21 23:58N 54°18' W 130°21'0 0.0
2018-May-21 23:28N 54°18' W 130°21'0 0.0
2018-May-21 22:52N 54°18' W 130°21'0 0.0
2018-May-21 22:28N 54°18' W 130°21'0 0.0
2018-May-21 21:49N 54°18' W 130°21'0 0.0
2018-May-21 21:28N 54°18' W 130°21'0 0.1
2018-May-21 20:57N 54°18' W 130°21'4 8.8
2018-May-21 20:29N 54°13' W 130°20'0 0.0
2018-May-21 19:59N 54°14' W 130°20'0 0.5
2018-May-21 19:29N 54°14' W 130°21'0 0.5
2018-May-21 19:00N 54°14' W 130°20'0 0.0
2018-May-21 18:30N 54°14' W 130°20'4 7.4
2018-May-21 18:00N 54°10' W 130°22'3 7.0
2018-May-21 17:30N 54°13' W 130°21'4 2.0
2018-May-21 15:25N 54°18' W 130°21'0 0.1
2018-May-21 14:43N 54°18' W 130°21'1 2.8
2018-May-21 14:30N 54°17' W 130°22'3 5.8
2018-May-21 13:58N 54°14' W 130°20'0 0.0
2018-May-21 13:28N 54°14' W 130°20'0 0.7
2018-May-21 12:58N 54°14' W 130°21'3 7.0
2018-May-21 12:30N 54°17' W 130°22'0 0.5
2018-May-21 11:46N 54°18' W 130°21'0 0.0
2018-May-21 11:28N 54°18' W 130°21'0 0.0
2018-May-21 10:58N 54°18' W 130°21'0 0.0
2018-May-21 10:25N 54°18' W 130°21'0 0.0
2018-May-21 09:58N 54°18' W 130°21'0 0.0
2018-May-21 09:28N 54°18' W 130°21'0 0.0
2018-May-21 08:58N 54°18' W 130°21'0 0.0
2018-May-21 08:28N 54°18' W 130°21'0 0.1
2018-May-21 07:51N 54°18' W 130°21'3 8.0
2018-May-21 07:30N 54°15' W 130°21'1 1.7
2018-May-21 06:58N 54°14' W 130°20'2 4.2
2018-May-21 06:30N 54°16' W 130°22'2 3.4
2018-May-21 05:59N 54°18' W 130°21'0 0.0
2018-May-21 05:29N 54°18' W 130°21'0 0.0
2018-May-21 04:29N 54°18' W 130°21'0 0.0
2018-May-21 03:59N 54°18' W 130°21'0 0.0
2018-May-21 03:26N 54°18' W 130°21'0 0.0
2018-May-21 02:17N 54°18' W 130°21'0 0.0
2018-May-21 01:56N 54°18' W 130°21'0 0.0
2018-May-21 01:11N 54°18' W 130°21'0 0.0
2018-May-21 00:56N 54°18' W 130°21'3 6.4
2018-May-21 00:30N 54°15' W 130°21'510.7
2018-May-21 00:00N 54°09' W 130°23'0 0.4
2018-May-20 23:31N 54°10' W 130°23'5 9.8
2018-May-20 23:00N 54°14' W 130°21'3 5.9
2018-May-20 22:29N 54°18' W 130°21'0 0.0
2018-May-20 21:56N 54°18' W 130°21'0 0.0
2018-May-20 21:05N 54°18' W 130°21'0 0.0
2018-May-20 20:59N 54°18' W 130°21'0 0.0
2018-May-20 20:29N 54°18' W 130°21'0 0.0
2018-May-20 19:50N 54°18' W 130°21'0 0.0
2018-May-20 19:20N 54°18' W 130°21'0 0.0
2018-May-20 18:56N 54°18' W 130°21'0 0.0
2018-May-20 18:29N 54°18' W 130°21'0 0.0
2018-May-20 17:53N 54°18' W 130°21'0 0.0
2018-May-20 17:23N 54°18' W 130°21'0 0.0
2018-May-20 16:59N 54°18' W 130°21'0 0.0
2018-May-20 16:29N 54°18' W 130°21'0 0.0
2018-May-20 15:59N 54°18' W 130°21'0 0.0
2018-May-20 15:29N 54°18' W 130°21'0 0.0
2018-May-20 14:59N 54°18' W 130°21'0 0.0
2018-May-20 14:29N 54°18' W 130°21'0 0.0
2018-May-20 13:59N 54°18' W 130°21'0 0.0
2018-May-20 13:29N 54°18' W 130°21'0 0.0
2018-May-20 12:59N 54°18' W 130°21'0 0.0
2018-May-20 12:29N 54°18' W 130°21'0 0.0
2018-May-20 11:53N 54°18' W 130°21'0 0.0
2018-May-20 11:29N 54°18' W 130°21'0 0.0
2018-May-20 10:56N 54°18' W 130°21'0 0.0
2018-May-20 10:08N 54°18' W 130°21'0 0.0
2018-May-20 09:47N 54°18' W 130°21'0 0.0
2018-May-20 09:29N 54°18' W 130°21'0 0.0
2018-May-20 08:08N 54°18' W 130°21'0 0.0
2018-May-20 07:56N 54°18' W 130°21'0 0.0
2018-May-20 07:26N 54°18' W 130°21'0 0.9
2018-May-20 06:59N 54°17' W 130°22'0 0.0
2018-May-20 06:29N 54°17' W 130°22'0 0.4
2018-May-20 05:56N 54°17' W 130°22'1 1.5
2018-May-20 05:22N 54°18' W 130°22'0 1.0
2018-May-20 05:00N 54°18' W 130°22'4 7.7
2018-May-20 04:30N 54°14' W 130°21'2 3.7
2018-May-20 04:00N 54°12' W 130°22'1 1.7
2018-May-20 03:30N 54°13' W 130°22'4 7.9
2018-May-20 03:00N 54°17' W 130°22'1 1.3
2018-May-20 02:29N 54°18' W 130°21'0 0.0
2018-May-20 01:50N 54°18' W 130°21'0 0.0
2018-May-20 01:23N 54°18' W 130°21'0 0.0
2018-May-20 00:59N 54°18' W 130°21'0 0.0
2018-May-20 00:26N 54°18' W 130°21'0 0.0
2018-May-19 23:53N 54°18' W 130°21'0 0.0
2018-May-19 23:29N 54°18' W 130°21'0 0.0
2018-May-19 22:59N 54°18' W 130°21'0 0.0
2018-May-19 22:29N 54°18' W 130°21'0 0.0
2018-May-19 21:44N 54°18' W 130°21'0 0.0
2018-May-19 21:29N 54°18' W 130°21'0 0.0
2018-May-19 20:38N 54°18' W 130°21'0 0.0
2018-May-19 19:38N 54°18' W 130°21'0 0.0
2018-May-19 19:29N 54°18' W 130°21'0 0.0
2018-May-19 18:50N 54°18' W 130°21'0 0.0
2018-May-19 18:20N 54°18' W 130°21'0 0.0
2018-May-19 17:50N 54°18' W 130°21'0 0.0
2018-May-19 17:29N 54°18' W 130°21'0 0.0
2018-May-19 16:59N 54°18' W 130°21'0 0.0
2018-May-19 16:29N 54°18' W 130°21'0 0.0
2018-May-19 15:59N 54°18' W 130°21'0 0.0
2018-May-19 15:26N 54°18' W 130°21'1 2.9
2018-May-19 15:00N 54°16' W 130°22'3 5.6
2018-May-19 14:29N 54°14' W 130°20'0 0.0
2018-May-19 13:59N 54°14' W 130°20'0 0.1
2018-May-19 13:29N 54°14' W 130°20'1 1.1
2018-May-19 13:00N 54°13' W 130°21'3 5.1
2018-May-19 12:30N 54°16' W 130°21'2 1.0
2018-May-19 10:34N 54°18' W 130°21'0 0.0
2018-May-19 10:28N 54°18' W 130°21'0 0.0
2018-May-19 09:58N 54°18' W 130°21'0 0.0
2018-May-19 09:28N 54°18' W 130°21'0 0.0
2018-May-19 08:58N 54°18' W 130°21'0 0.0
2018-May-19 08:04N 54°18' W 130°21'0 0.0
2018-May-19 07:58N 54°18' W 130°21'0 0.0
2018-May-19 06:37N 54°18' W 130°21'0 0.0
2018-May-19 06:19N 54°18' W 130°21'0 0.0
2018-May-19 05:52N 54°18' W 130°21'0 0.0
2018-May-19 05:28N 54°18' W 130°21'0 0.0
2018-May-19 04:58N 54°18' W 130°21'0 0.0
2018-May-19 04:28N 54°18' W 130°21'0 0.0
2018-May-19 03:58N 54°18' W 130°21'0 0.0
2018-May-19 03:28N 54°18' W 130°21'0 0.0
2018-May-19 02:58N 54°18' W 130°21'0 0.0
2018-May-19 02:25N 54°18' W 130°21'0 0.0
2018-May-19 01:58N 54°18' W 130°21'0 0.0
2018-May-19 01:25N 54°18' W 130°21'0 0.0
2018-May-19 00:49N 54°18' W 130°21'0 0.0
2018-May-19 00:28N 54°18' W 130°21'0 0.0
2018-May-18 23:58N 54°18' W 130°21'0 0.0
2018-May-18 23:28N 54°18' W 130°21'0 0.0
2018-May-18 20:52N 54°18' W 130°21'0 0.0
2018-May-18 20:25N 54°18' W 130°21'0 0.0
2018-May-18 19:55N 54°18' W 130°21'0 0.0
2018-May-18 19:25N 54°18' W 130°21'0 0.0
2018-May-18 18:49N 54°18' W 130°21'0 0.0
2018-May-18 18:25N 54°18' W 130°21'0 0.0
2018-May-18 17:58N 54°18' W 130°21'0 0.0
2018-May-18 17:25N 54°18' W 130°21'0 0.0
2018-May-18 16:55N 54°18' W 130°21'0 0.0
2018-May-18 16:19N 54°18' W 130°21'0 0.0
2018-May-18 15:55N 54°18' W 130°21'0 0.0
2018-May-18 15:25N 54°18' W 130°21'0 1.0
2018-May-18 14:59N 54°17' W 130°22'0 0.1
2018-May-18 14:29N 54°17' W 130°22'1 1.0
2018-May-18 13:42N 54°18' W 130°22'1 5.2
2018-May-18 13:30N 54°17' W 130°22'4 8.8
2018-May-18 13:00N 54°13' W 130°21'0 0.8
2018-May-18 12:28N 54°12' W 130°22'1 1.2
2018-May-18 12:00N 54°13' W 130°21'3 6.6
2018-May-18 11:30N 54°16' W 130°22'1 2.5
2018-May-18 10:58N 54°18' W 130°21'0 0.0
2018-May-18 10:28N 54°18' W 130°21'0 0.0
2018-May-18 09:58N 54°18' W 130°21'0 0.0
2018-May-18 09:28N 54°18' W 130°21'0 0.0
2018-May-18 08:58N 54°18' W 130°21'0 0.0
2018-May-18 08:28N 54°18' W 130°21'0 0.0
2018-May-18 07:58N 54°18' W 130°21'0 0.0
2018-May-18 07:25N 54°18' W 130°21'0 0.0
2018-May-18 06:46N 54°18' W 130°21'0 0.0
2018-May-18 06:25N 54°18' W 130°21'0 0.0
2018-May-18 05:55N 54°18' W 130°21'0 0.0
2018-May-18 05:25N 54°18' W 130°21'0 0.0
2018-May-18 04:55N 54°18' W 130°21'  

Dump ship's entire track history